createdAt,value
2024-05-09T00:00:35.508Z,10.23
2024-05-09T00:03:07.365Z,10.26
2024-05-09T00:05:34.455Z,10.23
2024-05-09T00:08:01.397Z,10.13
2024-05-09T00:10:35.450Z,10.07
2024-05-09T00:13:04.921Z,10.13
2024-05-09T00:15:33.167Z,10.17
2024-05-09T00:17:59.928Z,10.07
2024-05-09T00:20:35.095Z,10.08
2024-05-09T00:23:07.029Z,10.07
2024-05-09T00:25:34.019Z,10.12
2024-05-09T00:28:00.828Z,10.03
2024-05-09T00:30:33.739Z,10.07
2024-05-09T00:33:03.185Z,10.05
2024-05-09T00:35:30.511Z,10.04
2024-05-09T00:37:57.222Z,10.02
2024-05-09T00:40:35.001Z,10.13
2024-05-09T00:43:06.089Z,10.07
2024-05-09T00:45:36.061Z,10.09
2024-05-09T00:48:07.453Z,10.10
2024-05-09T00:50:38.162Z,10.05
2024-05-09T00:53:11.781Z,10.02
2024-05-09T00:55:39.847Z,10.08
2024-05-09T00:58:08.382Z,9.93
2024-05-09T01:00:39.352Z,9.92
2024-05-09T01:03:12.605Z,9.93
2024-05-09T01:05:41.058Z,9.91
2024-05-09T01:08:10.245Z,9.94
2024-05-09T01:10:38.081Z,9.89
2024-05-09T01:13:06.007Z,9.80
2024-05-09T01:15:33.985Z,9.82
2024-05-09T01:18:04.194Z,9.70
2024-05-09T01:20:40.154Z,9.67
2024-05-09T01:23:10.291Z,9.66
2024-05-09T01:25:37.623Z,9.61
2024-05-09T01:28:04.582Z,9.70
2024-05-09T01:30:35.449Z,9.60
2024-05-09T01:33:06.147Z,9.60
2024-05-09T01:35:34.336Z,9.68
2024-05-09T01:38:01.071Z,9.68
2024-05-09T01:40:36.407Z,9.66
2024-05-09T01:43:06.012Z,9.81
2024-05-09T01:45:32.657Z,9.79
2024-05-09T01:47:59.612Z,9.58
2024-05-09T01:50:37.207Z,9.62
2024-05-09T01:53:07.894Z,9.71
2024-05-09T01:55:34.553Z,9.76
2024-05-09T01:58:01.213Z,9.72
2024-05-09T02:00:37.854Z,9.72
2024-05-09T02:03:15.573Z,9.72
2024-05-09T02:05:45.730Z,9.75
2024-05-09T02:08:18.147Z,9.71
2024-05-09T02:10:45.598Z,9.59
2024-05-09T02:13:13.716Z,9.51
2024-05-09T02:15:40.440Z,9.51
2024-05-09T02:18:08.033Z,9.66
2024-05-09T02:20:36.939Z,9.61
2024-05-09T02:23:06.019Z,9.63
2024-05-09T02:25:33.212Z,9.57
2024-05-09T02:27:59.934Z,9.47
2024-05-09T02:30:36.557Z,9.48
2024-05-09T02:33:07.806Z,9.42
2024-05-09T02:35:34.973Z,9.39
2024-05-09T02:38:01.782Z,9.42
2024-05-09T02:40:35.968Z,9.43
2024-05-09T02:43:05.690Z,9.48
2024-05-09T02:45:32.718Z,9.49
2024-05-09T02:47:59.600Z,9.48
2024-05-09T02:50:34.170Z,9.41
2024-05-09T02:53:05.543Z,9.38
2024-05-09T02:55:32.489Z,9.41
2024-05-09T02:57:59.204Z,9.36
2024-05-09T03:00:34.652Z,9.36
2024-05-09T03:03:08.552Z,9.41
2024-05-09T03:05:36.966Z,9.29
2024-05-09T03:08:04.172Z,9.33
2024-05-09T03:10:35.980Z,9.27
2024-05-09T03:13:13.246Z,9.27
2024-05-09T03:15:41.135Z,9.22
2024-05-09T03:18:07.965Z,9.23
2024-05-09T03:20:36.260Z,9.15
2024-05-09T03:23:05.217Z,9.09
2024-05-09T03:25:32.370Z,9.12
2024-05-09T03:27:59.423Z,9.09
2024-05-09T03:30:38.090Z,9.09
2024-05-09T03:33:18.007Z,9.15
2024-05-09T03:35:46.677Z,9.07
2024-05-09T03:38:13.728Z,9.07
2024-05-09T03:40:48.759Z,9.16
2024-05-09T03:43:16.538Z,9.10
2024-05-09T03:45:43.572Z,9.04
2024-05-09T03:48:10.665Z,8.98
2024-05-09T03:50:37.938Z,8.95
2024-05-09T03:53:05.159Z,9.00
2024-05-09T03:55:32.094Z,9.03
2024-05-09T03:57:59.020Z,8.90
2024-05-09T04:00:34.235Z,8.95
2024-05-09T04:03:06.670Z,8.98
2024-05-09T04:05:35.367Z,8.94
2024-05-09T04:08:02.265Z,8.94
2024-05-09T04:10:33.483Z,8.91
2024-05-09T04:13:01.751Z,8.95
2024-05-09T04:15:28.417Z,8.94
2024-05-09T04:17:55.173Z,9.03
2024-05-09T04:20:32.976Z,8.98
2024-05-09T04:23:05.844Z,9.02
2024-05-09T04:25:32.693Z,9.07
2024-05-09T04:27:59.303Z,9.04
2024-05-09T04:30:34.786Z,9.04
2024-05-09T04:33:06.641Z,9.26
2024-05-09T04:35:34.301Z,9.24
2024-05-09T04:38:01.296Z,9.15
2024-05-09T04:40:33.434Z,9.16
2024-05-09T04:43:03.850Z,9.15
2024-05-09T04:45:30.661Z,9.21
2024-05-09T04:47:57.869Z,9.24
2024-05-09T04:50:33.181Z,9.30
2024-05-09T04:53:04.010Z,9.35
2024-05-09T04:55:30.714Z,9.36
2024-05-09T04:57:57.251Z,9.29
2024-05-09T05:00:32.472Z,9.40
2024-05-09T05:03:10.095Z,9.46
2024-05-09T05:05:41.893Z,9.59
2024-05-09T05:08:19.199Z,9.68
2024-05-09T05:10:47.467Z,9.59
2024-05-09T05:13:24.999Z,9.74
2024-05-09T05:15:56.457Z,9.77
2024-05-09T05:18:24.715Z,9.89
2024-05-09T05:20:52.015Z,9.94
2024-05-09T05:23:19.952Z,10.01
2024-05-09T05:25:48.443Z,10.09
2024-05-09T05:28:19.143Z,10.21
2024-05-09T05:30:46.312Z,10.22
2024-05-09T05:33:15.012Z,10.32
2024-05-09T05:35:42.371Z,10.44
2024-05-09T05:38:09.904Z,10.56
2024-05-09T05:40:38.446Z,10.64
2024-05-09T05:43:08.576Z,10.70
2024-05-09T05:45:35.404Z,10.82
2024-05-09T05:48:04.529Z,10.90
2024-05-09T05:50:36.003Z,10.88
2024-05-09T05:53:09.034Z,11.00
2024-05-09T05:55:40.868Z,11.16
2024-05-09T05:58:12.218Z,11.24
2024-05-09T06:00:41.540Z,11.47
2024-05-09T06:03:10.427Z,11.54
2024-05-09T06:05:43.211Z,11.69
2024-05-09T06:08:10.356Z,11.87
2024-05-09T06:10:39.882Z,12.12
2024-05-09T06:13:11.077Z,12.30
2024-05-09T06:15:38.177Z,12.38
2024-05-09T06:18:09.958Z,12.61
2024-05-09T06:20:39.636Z,12.67
2024-05-09T06:23:07.159Z,12.85
2024-05-09T06:25:34.982Z,12.98
2024-05-09T06:28:02.598Z,12.97
2024-05-09T06:30:37.577Z,13.07
2024-05-09T06:33:08.739Z,13.08
2024-05-09T06:35:36.201Z,13.10
2024-05-09T06:38:03.000Z,13.13
2024-05-09T06:40:37.113Z,13.24
2024-05-09T06:43:13.889Z,13.32
2024-05-09T06:45:40.863Z,13.51
2024-05-09T06:48:09.426Z,13.32
2024-05-09T06:50:38.451Z,13.34
2024-05-09T06:53:06.624Z,13.60
2024-05-09T06:55:34.015Z,13.88
2024-05-09T06:58:00.664Z,14.19
2024-05-09T07:00:35.464Z,14.07
2024-05-09T07:03:15.453Z,14.32
2024-05-09T07:05:44.949Z,14.32
2024-05-09T07:08:12.005Z,14.64
2024-05-09T07:10:38.749Z,14.47
2024-05-09T07:13:09.775Z,14.50
2024-05-09T07:15:36.543Z,14.53
2024-05-09T07:18:17.983Z,14.74
2024-05-09T07:20:46.335Z,14.75
2024-05-09T07:23:13.380Z,15.01
2024-05-09T07:25:41.319Z,15.09
2024-05-09T07:28:16.404Z,15.10
2024-05-09T07:30:43.719Z,15.17
2024-05-09T07:33:16.217Z,15.74
2024-05-09T07:35:43.160Z,15.55
2024-05-09T07:38:09.878Z,15.46
2024-05-09T07:40:37.171Z,15.82
2024-05-09T07:43:04.786Z,16.58
2024-05-09T07:45:48.058Z,16.52
2024-05-09T07:52:38.550Z,16.37
2024-05-09T07:53:46.430Z,16.64
2024-05-09T07:56:16.669Z,16.95
2024-05-09T07:58:43.955Z,17.16
2024-05-09T08:01:10.695Z,17.28
2024-05-09T08:03:38.298Z,16.90
2024-05-09T08:06:05.351Z,17.03
2024-05-09T08:08:31.946Z,17.36
2024-05-09T08:10:58.585Z,17.26
2024-05-09T08:13:25.153Z,17.19
2024-05-09T08:15:52.636Z,17.37
2024-05-09T08:18:19.503Z,17.71
2024-05-09T08:20:48.742Z,18.49
2024-05-09T08:23:15.706Z,18.04
2024-05-09T08:25:42.290Z,17.93
2024-05-09T08:28:09.053Z,17.85
2024-05-09T08:30:37.469Z,18.14
2024-05-09T08:33:06.683Z,18.57
2024-05-09T08:35:34.409Z,18.59
2024-05-09T08:38:06.093Z,18.90
2024-05-09T08:40:36.212Z,19.32
2024-05-09T08:43:09.316Z,19.26
2024-05-09T08:45:38.876Z,19.10
2024-05-09T08:48:08.850Z,19.21
2024-05-09T08:50:40.352Z,19.25
2024-05-09T08:53:07.979Z,19.50
2024-05-09T08:55:37.378Z,19.57
2024-05-09T08:58:07.503Z,19.57
2024-05-09T09:00:37.307Z,19.83
2024-05-09T09:03:09.125Z,19.72
2024-05-09T09:05:39.087Z,19.98
2024-05-09T09:08:08.134Z,19.91
2024-05-09T09:10:35.747Z,19.97
2024-05-09T09:13:04.889Z,20.33
2024-05-09T09:15:32.270Z,20.17
2024-05-09T09:18:02.144Z,20.70
2024-05-09T09:20:35.670Z,21.01
2024-05-09T09:23:04.121Z,21.15
2024-05-09T09:25:30.920Z,21.40
2024-05-09T09:27:58.616Z,21.55
2024-05-09T09:30:35.114Z,21.68
2024-05-09T09:33:05.254Z,21.42
2024-05-09T09:35:32.259Z,21.56
2024-05-09T09:38:03.093Z,21.80
2024-05-09T09:40:49.546Z,21.96
2024-05-09T09:43:21.551Z,21.84
2024-05-09T09:45:53.333Z,22.01
2024-05-09T09:48:21.733Z,22.36
2024-05-09T09:50:50.041Z,21.37
2024-05-09T09:53:17.200Z,21.20
2024-05-09T09:55:43.943Z,21.84
2024-05-09T09:58:13.863Z,22.13
2024-05-09T10:00:41.492Z,21.98
2024-05-09T10:03:08.436Z,20.83
2024-05-09T10:05:35.823Z,20.32
2024-05-09T10:08:07.248Z,21.99
2024-05-09T10:10:35.179Z,22.95
2024-05-09T10:13:05.187Z,22.93
2024-05-09T10:15:54.414Z,23.25
2024-05-09T10:18:28.287Z,23.15
2024-05-09T10:20:57.077Z,22.96
2024-05-09T10:23:32.210Z,23.02
2024-05-09T10:26:01.443Z,23.88
2024-05-09T10:28:37.090Z,23.56
2024-05-09T10:31:07.891Z,23.98
2024-05-09T10:33:51.565Z,23.91
2024-05-09T10:36:22.703Z,24.50
2024-05-09T10:38:50.211Z,24.67
2024-05-09T10:41:17.880Z,24.60
2024-05-09T10:43:44.883Z,24.41
2024-05-09T10:46:12.374Z,24.24
2024-05-09T10:48:41.534Z,23.82
2024-05-09T10:51:08.886Z,24.42
2024-05-09T10:53:46.447Z,23.68
2024-05-09T10:56:14.345Z,24.66
2024-05-09T10:58:41.048Z,23.80
2024-05-09T11:01:09.216Z,22.94
2024-05-09T11:03:37.006Z,22.86
2024-05-09T11:06:05.453Z,22.84
2024-05-09T11:08:32.990Z,22.14
2024-05-09T11:11:00.259Z,22.14
2024-05-09T11:13:27.842Z,21.64
2024-05-09T11:15:54.779Z,21.42
2024-05-09T11:18:25.515Z,21.44
2024-05-09T11:20:54.516Z,21.44
2024-05-09T11:23:22.676Z,21.43
2024-05-09T11:25:53.604Z,21.39
2024-05-09T11:28:21.178Z,21.15
2024-05-09T11:30:49.322Z,22.86
2024-05-09T11:33:19.158Z,22.11
2024-05-09T11:35:46.771Z,23.42
2024-05-09T11:38:13.876Z,24.22
2024-05-09T11:40:40.886Z,24.08
2024-05-09T11:43:07.628Z,23.93
2024-05-09T11:45:34.560Z,24.33
2024-05-09T11:48:01.445Z,24.98
2024-05-09T11:50:33.018Z,24.81
2024-05-09T11:53:02.414Z,25.32
2024-05-09T11:55:29.225Z,25.48
2024-05-09T11:57:56.353Z,25.44
2024-05-09T12:00:33.705Z,25.00
2024-05-09T12:03:05.400Z,25.41
2024-05-09T12:05:33.343Z,25.20
2024-05-09T12:08:00.769Z,24.23
2024-05-09T12:10:33.183Z,22.82
2024-05-09T12:13:02.896Z,23.09
2024-05-09T12:15:30.410Z,22.59
2024-05-09T12:17:59.935Z,22.65
2024-05-09T12:20:35.604Z,22.16
2024-05-09T12:23:05.479Z,22.07
2024-05-09T12:25:32.170Z,22.01
2024-05-09T12:27:58.942Z,22.20
2024-05-09T12:30:35.252Z,21.96
2024-05-09T12:33:05.971Z,22.14
2024-05-09T12:35:32.921Z,21.67
2024-05-09T12:37:59.596Z,21.65
2024-05-09T12:40:34.682Z,21.23
2024-05-09T12:43:04.822Z,21.48
2024-05-09T12:45:31.998Z,21.51
2024-05-09T12:47:58.877Z,21.49
2024-05-09T12:50:31.990Z,21.50
2024-05-09T12:53:00.994Z,21.36
2024-05-09T12:55:28.590Z,21.21
2024-05-09T12:57:57.330Z,21.38
2024-05-09T13:00:31.415Z,21.07
2024-05-09T13:03:01.153Z,21.02
2024-05-09T13:05:28.298Z,21.79
2024-05-09T13:07:56.678Z,22.89
2024-05-09T13:10:31.042Z,23.30
2024-05-09T13:13:00.780Z,23.77
2024-05-09T13:15:28.372Z,23.89
2024-05-09T13:17:58.091Z,24.20
2024-05-09T13:20:32.401Z,24.53
2024-05-09T13:23:02.419Z,24.34
2024-05-09T13:25:29.925Z,24.70
2024-05-09T13:27:57.697Z,24.18
2024-05-09T13:32:54.895Z,23.99
2024-05-09T13:35:21.645Z,24.56
2024-05-09T13:37:48.251Z,24.66
2024-05-09T13:40:17.033Z,24.41
2024-05-09T13:42:49.614Z,24.11
2024-05-09T13:45:16.210Z,24.45
2024-05-09T13:47:42.995Z,24.27
2024-05-09T13:50:14.204Z,24.79
2024-05-09T13:52:46.848Z,24.24
2024-05-09T13:55:13.602Z,23.39
2024-05-09T13:57:40.529Z,23.70
2024-05-09T14:00:18.196Z,24.20
2024-05-09T14:02:53.676Z,24.03
2024-05-09T14:05:20.426Z,24.15
2024-05-09T14:07:47.086Z,24.06
2024-05-09T14:10:22.628Z,23.97
2024-05-09T14:12:52.707Z,23.90
2024-05-09T14:15:19.443Z,23.65
2024-05-09T14:17:46.419Z,23.81
2024-05-09T14:20:16.683Z,23.98
2024-05-09T14:22:49.803Z,24.17
2024-05-09T14:25:16.494Z,23.91
2024-05-09T14:27:43.524Z,23.50
2024-05-09T14:30:18.103Z,23.45
2024-05-09T14:32:52.251Z,23.22
2024-05-09T14:35:19.202Z,22.95
2024-05-09T14:37:45.948Z,23.52
2024-05-09T14:40:29.830Z,23.50
2024-05-09T14:43:03.219Z,23.65
2024-05-09T14:45:30.050Z,22.52
2024-05-09T14:47:57.472Z,22.19
2024-05-09T14:50:34.391Z,21.91
2024-05-09T14:53:04.281Z,22.11
2024-05-09T14:55:31.080Z,22.17
2024-05-09T14:57:57.882Z,21.91
2024-05-09T15:00:29.020Z,21.92
2024-05-09T15:03:00.534Z,21.69
2024-05-09T15:05:27.469Z,21.65
2024-05-09T15:07:54.313Z,21.78
2024-05-09T15:10:27.327Z,21.74
2024-05-09T15:13:01.258Z,22.01
2024-05-09T15:15:28.066Z,22.40
2024-05-09T15:17:55.599Z,22.16
2024-05-09T15:20:31.121Z,22.18
2024-05-09T15:23:02.409Z,22.40
2024-05-09T15:25:29.394Z,22.22
2024-05-09T15:27:56.218Z,22.09
2024-05-09T15:30:30.611Z,22.31
2024-05-09T15:33:00.996Z,22.10
2024-05-09T15:35:28.036Z,22.24
2024-05-09T15:37:55.089Z,22.16
2024-05-09T15:40:31.016Z,22.04
2024-05-09T15:43:05.348Z,21.86
2024-05-09T15:45:32.391Z,21.87
2024-05-09T15:47:59.712Z,21.82
2024-05-09T15:50:36.105Z,21.63
2024-05-09T15:53:06.979Z,21.66
2024-05-09T15:55:34.830Z,21.56
2024-05-09T15:58:02.766Z,21.40
2024-05-09T16:00:37.348Z,21.17
2024-05-09T16:03:08.005Z,21.10
2024-05-09T16:05:34.968Z,21.17
2024-05-09T16:08:01.985Z,21.08
2024-05-09T16:10:32.752Z,21.05
2024-05-09T16:13:01.147Z,21.04
2024-05-09T16:15:28.002Z,20.86
2024-05-09T16:17:55.280Z,20.48
2024-05-09T16:20:33.883Z,20.53
2024-05-09T16:23:06.395Z,20.56
2024-05-09T16:25:33.244Z,20.71
2024-05-09T16:28:00.170Z,20.58
2024-05-09T16:30:31.914Z,20.71
2024-05-09T16:33:02.402Z,20.84
2024-05-09T16:35:29.298Z,20.65
2024-05-09T16:37:55.971Z,20.56
2024-05-09T16:40:30.256Z,20.52
2024-05-09T16:43:04.699Z,20.53
2024-05-09T16:45:31.819Z,20.67
2024-05-09T16:48:00.267Z,20.51
2024-05-09T16:50:32.404Z,20.60
2024-05-09T16:53:01.207Z,20.29
2024-05-09T16:55:27.966Z,20.42
2024-05-09T16:57:55.671Z,20.43
2024-05-09T17:00:31.618Z,20.23
2024-05-09T17:03:07.432Z,20.18
2024-05-09T17:05:35.247Z,20.20
2024-05-09T17:08:02.505Z,20.21
2024-05-09T17:10:33.121Z,20.14
2024-05-09T17:13:02.484Z,20.14
2024-05-09T17:15:29.744Z,20.02
2024-05-09T17:17:56.797Z,19.83
2024-05-09T17:20:31.329Z,19.90
2024-05-09T17:23:02.222Z,20.00
2024-05-09T17:25:29.205Z,20.12
2024-05-09T17:27:56.637Z,20.12
2024-05-09T17:30:31.595Z,19.95
2024-05-09T17:33:03.228Z,20.16
2024-05-09T17:35:30.944Z,20.11
2024-05-09T17:37:58.482Z,20.06
2024-05-09T17:40:31.463Z,20.00
2024-05-09T17:43:02.297Z,19.96
2024-05-09T17:45:29.276Z,19.97
2024-05-09T17:47:56.026Z,19.88
2024-05-09T17:50:30.275Z,19.77
2024-05-09T17:53:01.522Z,19.76
2024-05-09T17:55:28.770Z,19.72
2024-05-09T17:57:55.564Z,19.88
2024-05-09T18:00:32.850Z,19.72
2024-05-09T18:03:05.466Z,19.66
2024-05-09T18:05:32.549Z,19.66
2024-05-09T18:07:59.409Z,19.65
2024-05-09T18:10:33.132Z,19.63
2024-05-09T18:13:05.319Z,19.37
2024-05-09T18:15:32.258Z,19.38
2024-05-09T18:18:00.145Z,19.26
2024-05-09T18:22:56.418Z,19.13
2024-05-09T18:25:23.032Z,19.22
2024-05-09T18:27:49.731Z,18.96
2024-05-09T18:30:24.136Z,18.93
2024-05-09T18:32:58.319Z,18.77
2024-05-09T18:35:24.948Z,18.61
2024-05-09T18:37:51.622Z,18.59
2024-05-09T18:40:21.157Z,18.37
2024-05-09T18:42:55.122Z,18.32
2024-05-09T18:45:21.745Z,18.25
2024-05-09T18:47:48.398Z,18.04
2024-05-09T18:50:24.366Z,17.86
2024-05-09T18:52:58.300Z,17.60
2024-05-09T18:55:24.837Z,17.45
2024-05-09T18:57:51.506Z,17.28
2024-05-09T19:00:30.911Z,17.12
2024-05-09T19:03:02.299Z,17.03
2024-05-09T19:05:29.549Z,16.78
2024-05-09T19:07:56.571Z,16.62
2024-05-09T19:10:26.345Z,16.43
2024-05-09T19:12:58.803Z,16.28
2024-05-09T19:15:25.527Z,16.08
2024-05-09T19:17:52.266Z,16.13
2024-05-09T19:20:25.459Z,16.11
2024-05-09T19:22:58.452Z,15.87
2024-05-09T19:25:25.110Z,15.72
2024-05-09T19:27:51.799Z,15.69
2024-05-09T19:30:28.986Z,15.41
2024-05-09T19:33:02.771Z,15.41
2024-05-09T19:35:29.426Z,15.44
2024-05-09T19:37:56.229Z,15.40
2024-05-09T19:40:29.027Z,15.42
2024-05-09T19:42:58.888Z,15.40
2024-05-09T19:45:25.652Z,15.17
2024-05-09T19:47:52.559Z,15.15
2024-05-09T19:50:26.816Z,15.01
2024-05-09T19:53:02.179Z,14.86
2024-05-09T19:55:28.852Z,14.85
2024-05-09T19:57:55.486Z,14.89
2024-05-09T20:00:29.106Z,14.72
2024-05-09T20:03:01.944Z,14.74
2024-05-09T20:05:31.066Z,14.65
2024-05-09T20:07:58.282Z,14.61
2024-05-09T20:10:31.097Z,14.41
2024-05-09T20:12:59.947Z,14.35
2024-05-09T20:15:26.769Z,14.43
2024-05-09T20:17:53.818Z,14.37
2024-05-09T20:20:28.691Z,14.31
2024-05-09T20:23:03.223Z,14.19
2024-05-09T20:25:30.061Z,14.15
2024-05-09T20:27:56.770Z,14.22
2024-05-09T20:30:30.581Z,14.06
2024-05-09T20:32:59.998Z,14.07
2024-05-09T20:35:26.855Z,14.03
2024-05-09T20:37:53.626Z,14.06
2024-05-09T20:40:28.334Z,14.02
2024-05-09T20:42:59.360Z,14.05
2024-05-09T20:45:25.979Z,13.92
2024-05-09T20:47:52.729Z,13.83
2024-05-09T20:50:28.174Z,13.73
2024-05-09T20:53:02.905Z,13.76
2024-05-09T20:55:30.126Z,13.61
2024-05-09T20:57:57.173Z,13.57
2024-05-09T21:00:33.680Z,13.69
2024-05-09T21:03:06.619Z,13.63
2024-05-09T21:05:34.142Z,13.51
2024-05-09T21:08:01.308Z,13.41
2024-05-09T21:10:32.293Z,13.35
2024-05-09T21:13:00.398Z,13.45
2024-05-09T21:15:26.984Z,13.47
2024-05-09T21:17:53.562Z,13.23
2024-05-09T21:20:24.410Z,13.49
2024-05-09T21:22:57.714Z,13.49
2024-05-09T21:25:24.447Z,13.50
2024-05-09T21:27:51.270Z,13.47
2024-05-09T21:30:27.291Z,13.46
2024-05-09T21:32:59.967Z,13.38
2024-05-09T21:35:26.612Z,13.43
2024-05-09T21:37:53.273Z,13.43
2024-05-09T21:40:27.290Z,13.40
2024-05-09T21:43:00.946Z,13.24
2024-05-09T21:45:27.679Z,13.20
2024-05-09T21:47:54.616Z,13.26
2024-05-09T21:50:27.959Z,13.26
2024-05-09T21:52:59.054Z,13.32
2024-05-09T21:55:25.765Z,13.33
2024-05-09T21:57:52.497Z,13.36
2024-05-09T22:00:28.836Z,13.29
2024-05-09T22:03:02.279Z,13.37
2024-05-09T22:05:29.408Z,13.29
2024-05-09T22:07:56.565Z,13.27
2024-05-09T22:10:27.195Z,13.23
2024-05-09T22:12:59.983Z,13.24
2024-05-09T22:15:27.126Z,13.10
2024-05-09T22:17:55.299Z,13.13
2024-05-09T22:20:28.900Z,13.26
2024-05-09T22:23:02.603Z,13.12
2024-05-09T22:25:30.920Z,13.15
2024-05-09T22:27:58.509Z,13.15
2024-05-09T22:30:33.840Z,13.28
2024-05-09T22:33:05.189Z,13.32
2024-05-09T22:35:32.015Z,13.29
2024-05-09T22:37:58.718Z,13.43
2024-05-09T22:40:37.765Z,13.37
2024-05-09T22:43:12.441Z,13.36
2024-05-09T22:45:39.206Z,13.46
2024-05-09T22:48:06.437Z,13.48
2024-05-09T22:50:33.871Z,13.51
2024-05-09T22:53:00.778Z,13.50
2024-05-09T22:55:27.430Z,13.49
2024-05-09T22:57:54.009Z,13.52
2024-05-09T23:00:29.235Z,13.41
2024-05-09T23:03:02.594Z,13.49
2024-05-09T23:05:30.333Z,13.49
2024-05-09T23:07:57.050Z,13.41
2024-05-09T23:10:31.730Z,13.25
2024-05-09T23:13:03.134Z,13.20
2024-05-09T23:15:30.043Z,13.38
2024-05-09T23:17:57.444Z,13.53
2024-05-09T23:22:54.068Z,13.51
2024-05-09T23:25:20.658Z,13.44
2024-05-09T23:27:47.551Z,13.34
2024-05-09T23:30:21.939Z,13.18
2024-05-09T23:32:55.719Z,13.02
2024-05-09T23:35:22.552Z,12.98
2024-05-09T23:37:49.099Z,12.78
2024-05-09T23:40:18.981Z,12.55
2024-05-09T23:42:49.286Z,12.55
2024-05-09T23:45:16.226Z,12.54
2024-05-09T23:47:43.054Z,12.44
2024-05-09T23:50:16.714Z,12.48
2024-05-09T23:52:50.035Z,12.47
2024-05-09T23:55:16.671Z,12.33
2024-05-09T23:57:43.310Z,12.27
